Time;durP1;ratioP1;P1;durP2;ratioP2;P2;SDS_P1;SDS_P2;PMS_P1;PMS_P2;Temp;Humidity;BMP_temperature;BMP_pressure;BME280_temperature;BME280_humidity;BME280_pressure;Samples;Min_cycle;Max_cycle;Signal;HPM_P1;HPM_P2
2022/03/01 00:00:46;;;;;;;15.57;5.53;;;1.40;99.90;;;;;;5040543;28;20317;-86
2022/03/01 00:03:13;;;;;;;7.03;4.80;;;1.40;99.90;;;;;;5034558;28;20197;-85
2022/03/01 00:05:38;;;;;;;10.73;5.35;;;1.30;99.90;;;;;;5032750;28;20231;-86
2022/03/01 00:08:04;;;;;;;10.03;4.83;;;1.30;99.90;;;;;;5023131;28;20715;-85
2022/03/01 00:10:30;;;;;;;13.82;6.90;;;1.40;99.90;;;;;;5039304;28;20573;-85
2022/03/01 00:12:55;;;;;;;12.63;6.77;;;1.30;99.90;;;;;;5038473;28;20261;-85
2022/03/01 00:15:21;;;;;;;13.60;5.80;;;1.20;99.90;;;;;;5034792;28;20193;-84
2022/03/01 00:17:46;;;;;;;11.10;5.87;;;1.20;99.90;;;;;;5038555;28;20186;-86
2022/03/01 00:20:12;;;;;;;15.23;7.27;;;1.20;99.90;;;;;;5014667;28;20256;-87
2022/03/01 00:22:38;;;;;;;19.63;6.17;;;1.20;99.90;;;;;;5003186;28;20174;-87
2022/03/01 00:25:04;;;;;;;9.90;5.30;;;1.10;99.90;;;;;;5022781;28;20406;-87
2022/03/01 00:27:30;;;;;;;10.57;5.55;;;1.00;99.90;;;;;;5011806;28;20845;-87
2022/03/01 00:29:55;;;;;;;8.70;5.10;;;1.00;99.90;;;;;;5039996;28;20336;-84
2022/03/01 00:32:21;;;;;;;11.97;5.47;;;1.00;99.90;;;;;;5025575;28;20190;-84
2022/03/01 00:34:46;;;;;;;8.73;5.50;;;1.00;99.90;;;;;;5026132;28;20225;-84
2022/03/01 00:37:12;;;;;;;8.63;4.73;;;1.00;99.90;;;;;;5044756;28;20193;-85
2022/03/01 00:39:38;;;;;;;16.33;6.67;;;1.00;99.90;;;;;;5027485;28;20513;-85
2022/03/01 00:42:03;;;;;;;16.10;6.20;;;0.80;99.90;;;;;;5026029;28;20173;-84
2022/03/01 00:44:29;;;;;;;9.33;5.33;;;0.80;99.90;;;;;;5026297;28;20580;-85
2022/03/01 00:46:55;;;;;;;14.10;6.40;;;;;;;;;;5025886;28;20478;-86
2022/03/01 00:49:22;;;;;;;17.00;7.73;;;0.70;99.90;;;;;;5025404;28;20198;-85
2022/03/01 00:51:47;;;;;;;14.68;6.57;;;0.70;99.90;;;;;;5025165;28;20413;-86
2022/03/01 00:54:13;;;;;;;22.03;9.03;;;0.70;99.90;;;;;;5043080;28;20224;-85
2022/03/01 00:56:39;;;;;;;17.83;6.07;;;;;;;;;;5042523;28;20276;-84
2022/03/01 00:59:05;;;;;;;14.00;7.25;;;0.70;99.90;;;;;;5024591;28;20452;-84
2022/03/01 01:01:33;;;;;;;15.47;7.60;;;0.70;99.90;;;;;;5024813;28;20245;-85
2022/03/01 01:03:59;;;;;;;6.25;3.92;;;;;;;;;;5042676;28;20196;-86
2022/03/01 01:06:25;;;;;;;21.23;8.18;;;0.70;99.90;;;;;;5024905;28;20169;-85
2022/03/01 01:08:51;;;;;;;15.47;6.30;;;0.70;99.90;;;;;;5024580;28;20188;-84
2022/03/01 01:11:17;;;;;;;13.43;5.97;;;0.60;99.90;;;;;;5023763;28;20424;-86
2022/03/01 01:13:42;;;;;;;17.53;6.57;;;0.50;99.90;;;;;;5041535;28;20420;-84
2022/03/01 01:16:08;;;;;;;9.97;5.27;;;0.50;99.90;;;;;;5041592;28;20197;-85
2022/03/01 01:18:33;;;;;;;7.13;4.37;;;0.80;99.90;;;;;;5022951;28;20200;-85
2022/03/01 01:20:59;;;;;;;6.50;5.00;;;1.70;99.90;;;;;;5023118;28;20193;-86
2022/03/01 01:23:24;;;;;;;11.47;5.57;;;1.20;99.90;;;;;;5042200;28;20181;-85
2022/03/01 01:25:52;;;;;;;18.47;7.63;;;0.80;99.90;;;;;;5023638;28;20192;-86
2022/03/01 01:28:18;;;;;;;15.02;6.63;;;0.80;99.90;;;;;;5023329;28;20212;-86
2022/03/01 01:30:43;;;;;;;8.30;3.97;;;0.80;99.90;;;;;;5040073;28;20190;-86
2022/03/01 01:33:09;;;;;;;16.33;7.57;;;;;;;;;;5022258;28;20174;-86
2022/03/01 01:35:36;;;;;;;18.13;8.57;;;0.80;99.90;;;;;;5041513;28;20185;-87
2022/03/01 01:38:03;;;;;;;13.63;7.63;;;0.80;99.90;;;;;;5024920;28;20415;-87
2022/03/01 01:40:31;;;;;;;15.55;6.95;;;0.80;99.90;;;;;;5023183;28;20190;-86
2022/03/01 01:42:57;;;;;;;11.55;4.90;;;0.70;99.90;;;;;;5022351;28;20170;-87
2022/03/01 01:45:24;;;;;;;14.82;5.75;;;0.60;99.90;;;;;;5010690;28;20193;-85
2022/03/01 01:47:51;;;;;;;11.30;6.00;;;0.70;99.90;;;;;;5012027;28;20181;-84
2022/03/01 01:50:17;;;;;;;11.68;5.68;;;0.70;99.90;;;;;;5017800;28;20549;-84
2022/03/01 01:52:47;;;;;;;15.32;7.20;;;0.70;99.90;;;;;;5018017;28;20698;-86
2022/03/01 01:55:14;;;;;;;11.98;4.22;;;0.80;99.90;;;;;;5035646;28;20173;-85
2022/03/01 01:57:39;;;;;;;15.65;7.03;;;0.80;99.90;;;;;;5016661;28;20198;-84
2022/03/01 02:00:06;;;;;;;9.13;5.83;;;0.80;99.90;;;;;;5034254;28;20288;-84
2022/03/01 02:02:32;;;;;;;15.35;8.25;;;0.70;99.90;;;;;;5011099;28;20167;-84
2022/03/01 02:04:59;;;;;;;14.70;7.30;;;0.70;99.90;;;;;;4998323;28;20170;-83
2022/03/01 02:07:24;;;;;;;17.70;8.55;;;0.70;99.90;;;;;;4997943;28;20175;-84
2022/03/01 02:09:50;;;;;;;16.97;9.30;;;0.60;99.90;;;;;;4997330;28;20194;-84
2022/03/01 02:12:16;;;;;;;17.57;7.67;;;0.50;99.90;;;;;;5015700;28;20183;-83
2022/03/01 02:14:41;;;;;;;12.43;6.17;;;0.50;99.90;;;;;;4998990;28;20177;-84
2022/03/01 02:17:09;;;;;;;18.47;7.90;;;0.40;99.90;;;;;;5015695;28;20194;-84
2022/03/01 02:19:36;;;;;;;19.85;6.75;;;0.30;99.90;;;;;;5021560;28;20444;-84
2022/03/01 02:22:04;;;;;;;15.50;6.57;;;0.30;99.90;;;;;;5016763;28;20186;-83
2022/03/01 02:24:30;;;;;;;11.90;7.13;;;0.40;99.90;;;;;;4999545;28;20549;-84
2022/03/01 02:26:58;;;;;;;14.37;7.60;;;0.30;99.90;;;;;;5016411;28;20174;-84
2022/03/01 02:29:24;;;;;;;13.63;6.82;;;0.30;99.90;;;;;;5000292;28;20241;-83
2022/03/01 02:31:51;;;;;;;15.55;8.20;;;0.30;99.90;;;;;;4999163;28;20179;-83
2022/03/01 02:34:18;;;;;;;16.00;8.00;;;0.30;99.90;;;;;;5000012;28;20265;-84
2022/03/01 02:36:44;;;;;;;13.15;7.50;;;0.20;99.90;;;;;;5000098;28;20194;-83
2022/03/01 02:39:09;;;;;;;14.13;7.20;;;0.00;99.90;;;;;;5018155;28;20201;-84
2022/03/01 02:41:40;;;;;;;17.33;8.57;;;0.00;99.90;;;;;;5000709;28;20500;-84
2022/03/01 02:44:06;;;;;;;18.65;9.73;;;-0.10;99.90;;;;;;5000840;28;20405;-83
2022/03/01 02:46:32;;;;;;;16.42;7.53;;;-0.10;99.90;;;;;;5018101;28;20178;-84
2022/03/01 02:48:57;;;;;;;20.50;8.63;;;-0.20;99.90;;;;;;5018455;28;20697;-85
2022/03/01 02:51:23;;;;;;;22.47;7.60;;;-0.20;99.90;;;;;;4999740;28;20199;-84
2022/03/01 02:53:48;;;;;;;20.17;8.87;;;-0.30;99.90;;;;;;5001952;28;20179;-84
2022/03/01 02:56:14;;;;;;;18.87;8.20;;;-0.40;99.90;;;;;;5004844;28;20214;-83
2022/03/01 02:58:40;;;;;;;14.90;7.70;;;-0.50;99.90;;;;;;5004235;28;20170;-86
2022/03/01 03:01:06;;;;;;;20.45;7.85;;;-0.50;99.90;;;;;;5020789;28;20228;-86
2022/03/01 03:03:31;;;;;;;17.70;8.00;;;-0.60;99.90;;;;;;5004198;28;20234;-84
2022/03/01 03:05:57;;;;;;;24.03;8.47;;;-0.60;99.90;;;;;;5003590;28;20421;-84
2022/03/01 03:08:22;;;;;;;23.33;10.00;;;-0.60;99.90;;;;;;5020573;28;20174;-83
2022/03/01 03:10:48;;;;;;;19.23;8.57;;;-0.80;99.90;;;;;;5020483;28;20198;-85
2022/03/01 03:13:14;;;;;;;17.83;9.30;;;-0.80;99.90;;;;;;5002429;28;20209;-85
2022/03/01 03:15:39;;;;;;;15.10;9.20;;;-0.90;99.90;;;;;;5018782;28;20409;-84
2022/03/01 03:18:05;;;;;;;19.13;9.80;;;-0.90;99.90;;;;;;5020463;28;20177;-85
2022/03/01 03:20:30;;;;;;;20.00;9.03;;;-1.10;99.90;;;;;;5002105;28;20567;-85
2022/03/01 03:22:56;;;;;;;25.97;9.57;;;-1.20;99.90;;;;;;5002729;28;20210;-85
2022/03/01 03:25:21;;;;;;;15.90;8.30;;;-1.30;99.90;;;;;;5002804;28;20175;-84
2022/03/01 03:27:47;;;;;;;19.87;8.83;;;-1.40;99.90;;;;;;5002836;28;20643;-84
2022/03/01 03:30:12;;;;;;;19.13;9.17;;;-1.60;99.90;;;;;;5019998;28;20202;-84
2022/03/01 03:32:38;;;;;;;17.97;9.90;;;-1.70;99.90;;;;;;5003537;28;20246;-85
2022/03/01 03:35:05;;;;;;;18.50;9.50;;;-1.80;99.90;;;;;;5003439;28;20175;-85
2022/03/01 03:37:31;;;;;;;20.17;9.35;;;;;;;;;;5002701;28;21051;-84
2022/03/01 03:39:58;;;;;;;23.10;10.30;;;-1.70;99.90;;;;;;5002800;28;20210;-85
2022/03/01 03:42:24;;;;;;;18.80;9.68;;;;;;;;;;5002356;28;20166;-85
2022/03/01 03:44:49;;;;;;;14.33;8.37;;;-1.80;99.90;;;;;;5021212;28;20178;-85
2022/03/01 03:50:37;;;;;;;16.83;8.65;;;-2.20;99.90;;;;;;5018525;28;20193;-85
2022/03/01 03:53:03;;;;;;;17.20;8.20;;;-2.30;99.90;;;;;;5012249;28;20665;-83
2022/03/01 03:55:28;;;;;;;19.30;8.93;;;-2.40;99.90;;;;;;5004546;28;20551;-85
2022/03/01 03:57:56;;;;;;;16.27;7.50;;;-2.40;99.90;;;;;;5035935;28;20252;-83
2022/03/01 04:00:22;;;;;;;20.48;9.27;;;-2.50;99.90;;;;;;5036330;28;20213;-84
2022/03/01 04:02:51;;;;;;;25.83;8.77;;;-2.60;99.90;;;;;;5019925;28;20729;-83
2022/03/01 04:05:17;;;;;;;21.85;9.40;;;-2.60;99.90;;;;;;5020230;28;20468;-86
2022/03/01 04:07:44;;;;;;;16.77;9.68;;;-2.60;99.90;;;;;;5035125;28;20184;-86
2022/03/01 04:10:10;;;;;;;15.70;8.50;;;-2.60;99.90;;;;;;5020999;28;20208;-85
2022/03/01 04:12:37;;;;;;;19.17;10.77;;;-2.60;99.90;;;;;;5032644;28;20178;-84
2022/03/01 04:15:04;;;;;;;15.40;9.18;;;-2.60;99.90;;;;;;5017551;28;20205;-85
2022/03/01 04:17:29;;;;;;;18.30;9.32;;;-2.60;99.90;;;;;;5028259;28;20213;-85
2022/03/01 04:19:55;;;;;;;21.77;9.20;;;-2.60;99.90;;;;;;5021591;28;20194;-83
2022/03/01 04:22:20;;;;;;;19.50;8.67;;;-2.60;99.90;;;;;;5018372;28;20186;-83
2022/03/01 04:24:46;;;;;;;20.53;9.00;;;-2.50;99.90;;;;;;5024711;28;20194;-83
2022/03/01 04:27:12;;;;;;;18.47;8.00;;;-2.40;99.90;;;;;;5010957;28;20175;-83
2022/03/01 04:29:38;;;;;;;16.63;8.93;;;-2.30;99.90;;;;;;5029310;28;20209;-83
2022/03/01 04:32:03;;;;;;;26.07;9.73;;;-2.40;99.90;;;;;;5013551;28;20228;-83
2022/03/01 04:34:29;;;;;;;22.03;10.40;;;-2.40;99.90;;;;;;5029651;28;20914;-83
2022/03/01 04:36:55;;;;;;;21.90;10.17;;;-2.50;99.90;;;;;;5028276;28;20201;-83
2022/03/01 04:39:20;;;;;;;21.20;9.70;;;-2.60;99.90;;;;;;5035665;28;20197;-85
2022/03/01 04:41:46;;;;;;;18.83;9.47;;;-2.70;99.90;;;;;;5035231;28;20177;-85
2022/03/01 04:44:12;;;;;;;18.67;8.80;;;-2.60;99.90;;;;;;5005483;28;20427;-85
2022/03/01 04:46:38;;;;;;;14.90;8.10;;;-2.60;99.90;;;;;;5034784;28;20189;-83
2022/03/01 04:49:04;;;;;;;17.53;9.03;;;;;;;;;;5012058;28;20310;-83
2022/03/01 04:51:29;;;;;;;20.42;8.90;;;-2.60;99.90;;;;;;5030293;28;20207;-84
2022/03/01 04:53:55;;;;;;;17.00;9.37;;;-2.70;99.90;;;;;;5034150;28;20888;-83
2022/03/01 04:56:21;;;;;;;13.90;8.80;;;-2.70;99.90;;;;;;5035835;28;20546;-84
2022/03/01 04:58:47;;;;;;;18.75;9.40;;;-2.70;99.90;;;;;;5024074;28;20182;-82
2022/03/01 05:01:12;;;;;;;24.37;10.80;;;-2.70;99.90;;;;;;5020376;28;20280;-83
2022/03/01 05:03:38;;;;;;;19.37;10.27;;;-2.70;99.90;;;;;;5023892;28;20256;-82
2022/03/01 05:06:04;;;;;;;20.60;10.10;;;-2.70;99.90;;;;;;4999300;28;20212;-82
2022/03/01 05:08:30;;;;;;;17.33;9.37;;;-2.70;99.90;;;;;;5017833;28;20197;-83
2022/03/01 05:10:57;;;;;;;19.30;9.52;;;-2.70;99.90;;;;;;4995199;28;20210;-84
2022/03/01 05:13:23;;;;;;;24.27;9.30;;;-2.80;99.90;;;;;;5018267;28;20183;-85
2022/03/01 05:15:48;;;;;;;22.00;9.17;;;-2.90;99.90;;;;;;5000605;28;20228;-84
2022/03/01 05:18:14;;;;;;;18.37;9.47;;;-2.90;99.90;;;;;;4995964;28;20737;-83
2022/03/01 05:20:39;;;;;;;17.97;8.53;;;-3.00;99.90;;;;;;5004112;28;20209;-84
2022/03/01 05:23:05;;;;;;;20.13;9.13;;;-3.10;99.90;;;;;;5005097;28;20179;-83
2022/03/01 05:25:30;;;;;;;24.23;11.70;;;-3.20;99.90;;;;;;4996493;28;20185;-84
2022/03/01 05:27:56;;;;;;;21.10;10.90;;;-3.20;99.90;;;;;;4999591;28;20193;-83
2022/03/01 05:30:23;;;;;;;23.00;10.00;;;-3.30;99.90;;;;;;5012995;28;20209;-83
2022/03/01 05:32:52;;;;;;;18.55;10.57;;;-3.40;99.90;;;;;;5031077;28;20182;-83
2022/03/01 05:35:29;;;;;;;21.52;11.82;;;-3.40;99.90;;;;;;5029495;28;20244;-83
2022/03/01 05:37:57;;;;;;;23.50;9.60;;;-3.60;99.90;;;;;;5028721;28;20255;-83
2022/03/01 05:40:25;;;;;;;24.17;9.90;;;-3.50;99.90;;;;;;5011344;28;20198;-83
2022/03/01 05:42:52;;;;;;;21.70;8.57;;;-3.50;99.90;;;;;;5018761;28;20205;-84
2022/03/01 05:45:18;;;;;;;22.65;9.48;;;-3.60;99.90;;;;;;5019567;28;20181;-85
2022/03/01 05:47:44;;;;;;;29.07;10.40;;;-3.60;99.90;;;;;;5009269;28;20189;-84
2022/03/01 05:50:11;;;;;;;21.70;10.37;;;-3.60;99.90;;;;;;5008488;28;20194;-84
2022/03/01 05:52:37;;;;;;;23.80;10.35;;;-3.60;99.90;;;;;;5018839;28;20181;-84
2022/03/01 05:55:06;;;;;;;26.60;11.10;;;-3.50;99.90;;;;;;5010792;28;20710;-83
2022/03/01 05:57:31;;;;;;;22.15;9.40;;;-3.50;99.90;;;;;;5010717;28;20205;-84
2022/03/01 05:59:57;;;;;;;23.03;10.87;;;-3.50;99.90;;;;;;5012528;28;20218;-84
2022/03/01 06:02:23;;;;;;;24.47;8.07;;;-3.40;99.90;;;;;;5013613;28;20190;-83
2022/03/01 06:04:49;;;;;;;20.38;8.52;;;-3.30;99.90;;;;;;5012798;28;20437;-83
2022/03/01 06:07:14;;;;;;;19.50;9.50;;;-3.20;99.90;;;;;;5027416;28;20228;-83
2022/03/01 06:09:40;;;;;;;22.67;9.70;;;-3.10;99.90;;;;;;5014586;28;20227;-83
2022/03/01 06:12:06;;;;;;;17.80;9.27;;;-3.00;99.90;;;;;;5026657;28;20705;-83
2022/03/01 06:14:31;;;;;;;15.52;9.32;;;-2.30;99.90;;;;;;5028684;23;21191;-86
2022/03/01 06:16:57;;;;;;;14.97;8.13;;;-2.80;99.90;;;;;;5014715;28;20231;-86
2022/03/01 06:19:23;;;;;;;17.03;9.07;;;;;;;;;;5050940;23;20246;-84
2022/03/01 06:21:49;;;;;;;23.60;10.43;;;-2.60;99.90;;;;;;5015766;28;20183;-84
2022/03/01 06:24:15;;;;;;;17.80;8.40;;;;;;;;;;4999642;28;20178;-83
2022/03/01 06:26:41;;;;;;;18.92;8.35;;;;;;;;;;5011911;28;20192;-83
2022/03/01 06:29:07;;;;;;;16.63;8.40;;;-2.30;99.90;;;;;;5009624;28;20209;-84
2022/03/01 06:31:32;;;;;;;21.07;8.37;;;-2.30;99.90;;;;;;5016260;28;20240;-84
2022/03/01 06:33:58;;;;;;;19.40;9.60;;;-2.20;99.90;;;;;;5011583;28;20194;-83
2022/03/01 06:36:24;;;;;;;19.80;8.73;;;-2.10;99.90;;;;;;5013157;28;20221;-83
2022/03/01 06:38:51;;;;;;;19.25;9.55;;;-2.10;99.90;;;;;;5014435;28;20182;-83
2022/03/01 06:41:16;;;;;;;21.95;9.48;;;-2.00;99.90;;;;;;5012853;28;20818;-84
2022/03/01 06:43:44;;;;;;;19.77;9.93;;;-1.70;99.90;;;;;;5014035;28;20174;-83
2022/03/01 06:46:10;;;;;;;17.95;9.15;;;-1.60;99.90;;;;;;5013883;28;20214;-83
2022/03/01 06:48:36;;;;;;;22.37;9.00;;;-0.40;99.90;;;;;;5010564;28;20243;-84
2022/03/01 06:51:03;;;;;;;30.50;12.17;;;2.20;99.90;;;;;;5014027;28;20935;-85
2022/03/01 06:53:29;;;;;;;25.80;11.00;;;;;;;;;;5015940;28;21025;-83
2022/03/01 06:55:55;;;;;;;25.15;9.95;;;3.40;99.90;;;;;;5010269;28;20202;-84
2022/03/01 06:58:21;;;;;;;23.97;13.33;;;4.40;99.90;;;;;;5013029;28;20271;-84
2022/03/01 07:00:46;;;;;;;31.87;12.77;;;5.00;99.90;;;;;;5014761;28;20457;-84
2022/03/01 07:03:12;;;;;;;21.40;10.80;;;6.00;99.80;;;;;;5011115;28;20181;-85
2022/03/01 07:05:38;;;;;;;21.60;10.93;;;6.80;94.60;;;;;;5011384;28;20226;-84
2022/03/01 07:08:04;;;;;;;19.80;10.90;;;7.60;93.50;;;;;;5010359;28;20185;-84
2022/03/01 07:10:29;;;;;;;16.07;10.07;;;8.60;92.50;;;;;;5012067;28;20426;-84
2022/03/01 07:12:55;;;;;;;18.40;9.40;;;9.60;88.00;;;;;;5013530;28;20302;-85
2022/03/01 07:15:21;;;;;;;20.27;11.17;;;10.70;81.20;;;;;;5008197;28;20201;-86
2022/03/01 07:17:46;;;;;;;30.30;12.60;;;11.70;81.10;;;;;;5009510;28;20241;-85
2022/03/01 07:20:13;;;;;;;21.73;12.37;;;13.00;76.40;;;;;;5011058;28;20190;-85
2022/03/01 07:22:39;;;;;;;23.65;14.00;;;14.00;71.40;;;;;;5006341;28;20800;-85
2022/03/01 07:25:06;;;;;;;29.77;14.07;;;15.00;62.30;;;;;;5004929;28;20710;-86
2022/03/01 07:27:31;;;;;;;16.42;11.15;;;14.90;57.10;;;;;;5006436;28;20282;-85
2022/03/01 07:29:57;;;;;;;20.13;11.00;;;14.70;56.40;;;;;;5021773;28;20220;-86
2022/03/01 07:32:23;;;;;;;19.17;10.70;;;14.90;52.80;;;;;;5004430;28;20733;-85
2022/03/01 07:34:48;;;;;;;19.03;10.77;;;14.70;52.40;;;;;;5008502;28;20205;-86
2022/03/01 07:37:14;;;;;;;25.37;12.50;;;13.90;52.10;;;;;;5010522;28;20736;-84
2022/03/01 07:39:39;;;;;;;19.40;9.43;;;12.60;51.50;;;;;;5006788;28;20197;-85
2022/03/01 07:42:05;;;;;;;13.50;8.43;;;11.50;53.10;;;;;;5009957;28;20244;-85
2022/03/01 07:44:34;;;;;;;18.00;10.13;;;9.80;54.80;;;;;;5005873;28;21845;-84
2022/03/01 07:46:59;;;;;;;19.48;8.23;;;9.20;57.00;;;;;;5008963;28;20198;-83
2022/03/01 07:49:25;;;;;;;19.10;10.10;;;8.50;57.50;;;;;;5007142;28;20194;-83
2022/03/01 07:51:50;;;;;;;19.47;8.50;;;8.10;58.30;;;;;;5012223;28;20688;-86
2022/03/01 07:54:16;;;;;;;22.80;9.27;;;8.40;59.80;;;;;;5007213;28;20241;-84
2022/03/01 07:56:41;;;;;;;17.93;9.70;;;8.40;60.00;;;;;;5006884;28;20226;-84
2022/03/01 07:59:07;;;;;;;17.57;8.80;;;8.20;60.50;;;;;;5009104;28;20177;-85
2022/03/01 08:01:33;;;;;;;18.97;7.80;;;8.20;59.90;;;;;;5012858;28;20193;-84
2022/03/01 08:03:58;;;;;;;14.57;7.37;;;7.80;59.60;;;;;;5005343;28;20450;-84
2022/03/01 08:06:24;;;;;;;14.33;7.90;;;6.80;62.50;;;;;;5011720;28;20221;-85
2022/03/01 08:08:49;;;;;;;19.67;8.63;;;6.70;63.10;;;;;;5029016;28;20264;-84
2022/03/01 08:11:15;;;;;;;14.33;7.83;;;8.80;65.50;;;;;;5004128;28;20190;-84
2022/03/01 08:13:41;;;;;;;16.63;7.67;;;7.00;64.20;;;;;;5010282;28;20639;-83
2022/03/01 08:16:07;;;;;;;16.17;8.63;;;6.60;64.60;;;;;;5024465;28;20349;-84
2022/03/01 08:18:33;;;;;;;14.17;7.07;;;6.30;64.80;;;;;;5005669;28;20416;-86
2022/03/01 08:20:58;;;;;;;13.30;7.97;;;6.50;65.80;;;;;;5005566;28;20557;-85
2022/03/01 08:23:27;;;;;;;11.50;5.70;;;6.70;63.90;;;;;;5003150;28;20181;-83
2022/03/01 08:25:53;;;;;;;19.27;8.43;;;6.40;63.80;;;;;;5006676;28;23166;-85
2022/03/01 08:28:19;;;;;;;10.60;4.97;;;7.00;65.10;;;;;;5003531;28;20277;-85
2022/03/01 08:30:46;;;;;;;16.27;7.30;;;6.90;63.50;;;;;;5004616;28;20188;-84
2022/03/01 08:33:16;;;;;;;11.90;7.55;;;7.00;64.80;;;;;;5008091;28;20178;-84
2022/03/01 08:35:42;;;;;;;19.00;8.50;;;6.60;63.20;;;;;;5016290;28;20205;-84
2022/03/01 08:38:07;;;;;;;15.60;8.35;;;6.70;63.20;;;;;;5004533;28;20187;-86
2022/03/01 08:40:37;;;;;;;13.83;7.53;;;6.70;64.70;;;;;;5005186;28;20795;-85
2022/03/01 08:43:04;;;;;;;16.10;8.10;;;6.70;64.60;;;;;;4996027;28;20820;-85
2022/03/01 08:45:30;;;;;;;12.07;5.85;;;6.50;63.40;;;;;;5001359;28;20896;-85
2022/03/01 08:47:55;;;;;;;17.02;6.93;;;6.30;64.00;;;;;;5008325;28;20737;-86
2022/03/01 08:50:21;;;;;;;13.07;7.73;;;6.80;65.10;;;;;;5006046;28;20193;-84
2022/03/01 08:52:48;;;;;;;14.90;7.93;;;7.50;63.40;;;;;;5009582;28;20745;-84
2022/03/01 08:55:13;;;;;;;14.27;8.20;;;7.10;62.00;;;;;;5010200;28;20210;-85
2022/03/01 08:57:39;;;;;;;15.53;7.80;;;6.80;63.60;;;;;;5009269;28;20210;-85
2022/03/01 09:00:07;;;;;;;12.53;7.33;;;7.00;62.90;;;;;;5012453;28;20205;-84
2022/03/01 09:02:33;;;;;;;16.55;9.20;;;7.40;63.30;;;;;;5013090;28;20217;-84
2022/03/01 09:04:59;;;;;;;12.83;8.00;;;7.90;63.10;;;;;;5015263;28;20206;-84
2022/03/01 09:07:25;;;;;;;20.67;9.80;;;8.40;61.70;;;;;;5011738;28;20851;-86
2022/03/01 09:09:51;;;;;;;13.90;8.43;;;8.40;62.30;;;;;;5016336;28;20193;-85
2022/03/01 09:12:17;;;;;;;11.57;7.17;;;8.20;61.80;;;;;;5015141;28;20439;-85
2022/03/01 09:14:42;;;;;;;17.60;6.50;;;8.10;59.90;;;;;;5014797;28;20460;-84
2022/03/01 09:17:08;;;;;;;19.33;7.80;;;7.90;60.90;;;;;;5014257;28;20622;-85
2022/03/01 09:19:33;;;;;;;17.60;10.13;;;7.90;63.90;;;;;;5013087;28;20225;-84
2022/03/01 09:21:59;;;;;;;16.50;9.03;;;7.70;61.70;;;;;;5023273;28;20194;-85
2022/03/01 09:24:24;;;;;;;17.27;9.10;;;7.50;62.20;;;;;;5013930;28;20202;-85
2022/03/01 09:26:50;;;;;;;11.30;6.53;;;7.40;62.30;;;;;;5014853;28;20194;-84
2022/03/01 09:29:15;;;;;;;21.90;7.97;;;7.40;61.40;;;;;;5016721;28;20193;-85
2022/03/01 09:31:41;;;;;;;15.83;8.50;;;8.00;64.10;;;;;;5015568;28;20186;-85
2022/03/01 09:34:07;;;;;;;18.83;9.87;;;8.70;62.20;;;;;;5011920;28;20243;-83
2022/03/01 09:36:33;;;;;;;23.30;11.03;;;8.70;62.80;;;;;;5020258;28;20215;-85
2022/03/01 09:38:58;;;;;;;15.30;6.90;;;8.70;60.00;;;;;;5009740;28;20217;-85
2022/03/01 09:41:24;;;;;;;17.27;9.23;;;8.20;59.80;;;;;;5012548;28;21002;-85
2022/03/01 09:43:53;;;;;;;22.03;9.77;;;8.00;61.70;;;;;;5013807;28;21601;-84
2022/03/01 09:46:19;;;;;;;20.58;9.40;;;9.10;61.20;;;;;;5017383;28;20216;-86
2022/03/01 09:48:45;;;;;;;13.70;7.17;;;9.00;61.40;;;;;;5029137;28;20313;-86
2022/03/01 09:51:11;;;;;;;16.03;7.13;;;9.40;59.60;;;;;;5012393;28;20182;-86
2022/03/01 09:53:40;;;;;;;20.60;9.90;;;9.10;59.60;;;;;;5014133;28;20502;-85
2022/03/01 09:56:07;;;;;;;15.15;7.55;;;9.60;61.20;;;;;;5030595;28;20210;-84
2022/03/01 09:58:33;;;;;;;17.42;8.02;;;9.80;58.60;;;;;;5013768;28;22114;-84
2022/03/01 10:00:59;;;;;;;12.77;7.87;;;9.90;59.60;;;;;;5012150;28;20173;-83
2022/03/01 10:03:24;;;;;;;20.90;8.40;;;10.40;57.60;;;;;;5009745;28;20233;-85
2022/03/01 10:05:50;;;;;;;18.47;8.37;;;10.50;55.60;;;;;;5009873;28;20202;-84
2022/03/01 10:08:21;;;;;;;14.47;8.33;;;10.40;55.90;;;;;;5013279;28;20864;-84
2022/03/01 10:10:57;;;;;;;16.02;8.70;;;10.00;56.00;;;;;;5013433;28;20179;-84
2022/03/01 10:13:27;;;;;;;13.07;7.97;;;8.90;57.20;;;;;;5026542;28;20190;-85
2022/03/01 10:16:12;;;;;;;13.07;7.40;;;8.10;59.10;;;;;;5013284;28;20704;-85
2022/03/01 10:18:41;;;;;;;14.98;7.85;;;7.40;59.00;;;;;;5015240;28;20568;-84
2022/03/01 10:21:11;;;;;;;13.75;7.15;;;6.80;60.80;;;;;;5016616;28;20174;-84
2022/03/01 10:23:38;;;;;;;13.30;7.72;;;6.50;63.20;;;;;;5012658;28;20262;-84
2022/03/01 10:26:13;;;;;;;17.60;8.82;;;6.20;63.20;;;;;;5006364;28;20190;-84
2022/03/01 10:28:39;;;;;;;14.43;8.30;;;6.10;64.00;;;;;;5026191;28;20199;-85
2022/03/01 10:31:19;;;;;;;13.02;6.85;;;6.10;63.00;;;;;;5029467;28;20182;-86
2022/03/01 10:34:03;;;;;;;9.52;7.28;;;6.00;62.70;;;;;;5009867;28;20610;-85
2022/03/01 10:36:49;;;;;;;12.38;6.10;;;5.80;61.60;;;;;;5004229;28;20229;-85
2022/03/01 10:39:20;;;;;;;16.88;7.47;;;5.70;61.10;;;;;;5010034;28;20193;-84
2022/03/01 10:41:48;;;;;;;10.50;6.78;;;5.60;62.50;;;;;;5009249;28;20622;-85
2022/03/01 10:44:34;;;;;;;14.38;8.20;;;5.80;61.20;;;;;;5023942;28;20221;-85
2022/03/01 10:47:02;;;;;;;19.10;8.98;;;5.80;62.60;;;;;;5008800;28;20225;-85
2022/03/01 10:49:31;;;;;;;12.90;7.30;;;6.00;62.50;;;;;;5008372;28;20231;-85
2022/03/01 10:52:02;;;;;;;15.25;7.57;;;6.20;60.70;;;;;;5012025;28;20179;-85
2022/03/01 10:54:27;;;;;;;11.98;6.40;;;6.00;60.40;;;;;;5007971;28;20209;-85
2022/03/01 10:56:56;;;;;;;11.67;7.43;;;6.10;61.90;;;;;;5013512;28;20719;-85
2022/03/01 10:59:25;;;;;;;14.85;8.13;;;6.30;61.60;;;;;;5023571;28;20206;-86
2022/03/01 11:01:51;;;;;;;14.57;8.05;;;6.50;59.90;;;;;;5008858;28;20790;-86
2022/03/01 11:04:18;;;;;;;13.02;7.25;;;6.30;58.90;;;;;;5013927;28;20214;-84
2022/03/01 11:06:45;;;;;;;9.18;6.63;;;6.30;59.20;;;;;;5007971;28;20591;-85
2022/03/01 11:09:12;;;;;;;12.75;7.85;;;6.10;59.50;;;;;;5008328;28;20194;-84
2022/03/01 11:11:39;;;;;;;13.75;6.25;;;6.00;59.60;;;;;;5011104;28;20197;-85
2022/03/01 11:14:05;;;;;;;11.77;7.35;;;6.10;59.90;;;;;;5008271;28;20193;-86
2022/03/01 11:16:56;;;;;;;12.77;6.70;;;6.10;58.90;;;;;;5015013;28;20711;-84
2022/03/01 11:19:38;;;;;;;15.07;7.53;;;6.10;60.10;;;;;;5030673;28;20782;-86
2022/03/01 11:22:06;;;;;;;17.13;8.27;;;6.30;59.70;;;;;;5016607;28;20692;-85
2022/03/01 11:24:32;;;;;;;11.60;6.50;;;6.60;60.80;;;;;;5012805;28;21001;-85
2022/03/01 11:27:08;;;;;;;14.95;7.70;;;7.10;61.60;;;;;;5019105;28;20182;-86
2022/03/01 11:29:41;;;;;;;12.13;7.32;;;7.10;62.80;;;;;;5028526;28;20194;-86
2022/03/01 11:32:15;;;;;;;14.23;8.60;;;7.50;59.70;;;;;;5022608;28;20189;-86
2022/03/01 11:34:42;;;;;;;20.42;8.65;;;7.70;58.50;;;;;;5016773;28;20207;-85
2022/03/01 11:37:19;;;;;;;16.75;7.78;;;8.00;59.10;;;;;;5012615;28;20222;-86
2022/03/01 11:39:55;;;;;;;15.40;7.55;;;8.30;59.40;;;;;;5017286;28;20196;-86
2022/03/01 11:42:21;;;;;;;14.02;7.90;;;8.70;57.90;;;;;;5014148;28;20296;-87
2022/03/01 11:44:54;;;;;;;13.65;7.50;;;8.70;57.70;;;;;;5011261;28;20209;-86
2022/03/01 11:47:31;;;;;;;13.90;7.70;;;8.40;55.20;;;;;;5015780;28;20190;-87
2022/03/01 11:49:56;;;;;;;15.38;7.78;;;8.40;55.30;;;;;;5016998;28;20718;-85
2022/03/01 11:52:26;;;;;;;12.57;7.20;;;8.30;54.00;;;;;;5013373;28;20239;-86
2022/03/01 11:54:55;;;;;;;13.93;8.35;;;8.50;55.40;;;;;;5030622;28;20209;-85
2022/03/01 11:57:29;;;;;;;11.38;6.93;;;8.50;55.90;;;;;;5022368;28;20235;-86
2022/03/01 11:59:56;;;;;;;16.58;7.47;;;8.40;53.00;;;;;;5013763;28;20245;-84
2022/03/01 12:02:25;;;;;;;9.32;4.75;;;8.30;53.60;;;;;;5014070;28;20178;-85
2022/03/01 12:04:53;;;;;;;9.70;6.18;;;8.00;53.20;;;;;;5015935;28;20202;-85
2022/03/01 12:07:22;;;;;;;13.88;7.30;;;7.90;55.00;;;;;;5015428;28;20213;-86
2022/03/01 12:10:03;;;;;;;14.18;6.93;;;8.20;55.90;;;;;;5011641;28;20630;-84
2022/03/01 12:12:37;;;;;;;14.30;7.65;;;8.60;55.80;;;;;;5015907;28;20257;-85
2022/03/01 12:15:06;;;;;;;10.18;7.50;;;8.80;56.60;;;;;;5012202;28;20205;-86
2022/03/01 12:17:44;;;;;;;14.57;7.05;;;8.80;55.00;;;;;;5029645;23;20228;-81
2022/03/01 12:20:12;;;;;;;14.23;7.75;;;8.80;54.70;;;;;;5038064;28;20200;-81
2022/03/01 12:22:54;;;;;;;11.18;7.03;;;8.50;53.60;;;;;;5047354;28;20221;-82
2022/03/01 12:25:20;;;;;;;14.05;6.55;;;8.50;53.40;;;;;;5053525;28;20180;-81
2022/03/01 12:27:49;;;;;;;14.40;7.88;;;8.40;52.50;;;;;;5053443;28;20223;-82
2022/03/01 12:30:19;;;;;;;12.35;6.93;;;8.40;54.80;;;;;;5046024;28;20208;-82
2022/03/01 12:32:55;;;;;;;14.80;8.25;;;8.60;51.80;;;;;;5057154;28;20330;-82
2022/03/01 12:35:22;;;;;;;10.63;6.13;;;8.50;52.40;;;;;;5052916;28;20571;-81
2022/03/01 12:37:49;;;;;;;11.85;6.80;;;8.30;51.70;;;;;;5051068;28;20223;-82
2022/03/01 12:40:25;;;;;;;9.90;5.80;;;8.30;51.20;;;;;;5055363;28;20192;-82
2022/03/01 12:42:50;;;;;;;10.00;6.88;;;8.20;52.40;;;;;;5054748;28;20279;-82
2022/03/01 12:45:16;;;;;;;10.40;6.80;;;8.20;53.60;;;;;;5057501;28;20173;-81
2022/03/01 12:47:42;;;;;;;13.60;7.33;;;8.20;52.20;;;;;;5034660;28;20212;-82